Time;durP1;ratioP1;P1;durP2;ratioP2;P2;SDS_P1;SDS_P2;PMS_P1;PMS_P2;Temp;Humidity;BMP_temperature;BMP_pressure;BME280_temperature;BME280_humidity;BME280_pressure;Samples;Min_cycle;Max_cycle;Signal;HPM_P1;HPM_P2
2022/05/13 00:01:14;;;;;;;5.25;2.50;;;;;;;22.13;55.40;100554.16;18561746;32;20474;-68
2022/05/13 00:11:18;;;;;;;6.35;2.78;;;;;;;22.03;56.19;100551.09;18561459;32;20087;-67
2022/05/13 00:21:23;;;;;;;6.93;2.75;;;;;;;21.46;58.13;100554.59;18561375;32;20141;-67
2022/05/13 00:31:26;;;;;;;7.97;3.10;;;;;;;22.02;55.61;100553.81;18561018;32;20095;-68
2022/05/13 00:41:31;;;;;;;6.53;3.20;;;;;;;21.63;58.08;100553.78;18559515;32;20136;-67
2022/05/13 00:51:38;;;;;;;6.53;3.25;;;;;;;21.59;58.99;100573.47;18560390;32;20149;-67
2022/05/13 01:01:43;;;;;;;7.60;3.50;;;;;;;21.55;58.04;100579.00;18559819;32;20731;-68
2022/05/13 01:11:47;;;;;;;6.68;3.17;;;;;;;21.44;59.01;100563.53;18559495;32;20371;-67
2022/05/13 01:21:52;;;;;;;6.12;2.40;;;;;;;21.46;58.17;100543.97;18544154;32;20436;-68
2022/05/13 01:31:55;;;;;;;6.22;2.67;;;;;;;21.81;53.87;100513.19;18557999;32;20106;-68
2022/05/13 01:41:59;;;;;;;5.80;2.15;;;;;;;22.10;54.04;100545.47;18557207;32;20376;-67
2022/05/13 01:52:03;;;;;;;3.67;1.67;;;;;;;21.78;53.00;100531.94;18560338;32;20105;-67
2022/05/13 02:02:07;;;;;;;4.50;1.98;;;;;;;22.42;50.25;100540.38;18565544;32;20136;-68
2022/05/13 02:12:11;;;;;;;1.87;1.35;;;;;;;22.60;50.44;100543.94;18565160;32;20376;-68
2022/05/13 02:22:16;;;;;;;2.95;1.37;;;;;;;22.49;47.87;100528.53;18564642;32;20096;-67
2022/05/13 02:32:19;;;;;;;3.83;1.48;;;;;;;22.59;46.89;100545.75;18564463;32;20104;-67
2022/05/13 02:42:24;;;;;;;2.47;1.42;;;;;;;23.18;45.69;100533.03;18550790;32;20122;-67
2022/05/13 02:52:28;;;;;;;2.12;1.20;;;;;;;23.03;47.90;100522.22;18549664;32;20117;-67
2022/05/13 03:02:33;;;;;;;3.30;1.60;;;;;;;22.54;49.22;100533.62;18563046;32;20130;-68
2022/05/13 03:12:36;;;;;;;4.15;1.58;;;;;;;23.08;47.03;100512.22;18563507;32;20137;-67
2022/05/13 03:22:41;;;;;;;4.22;1.55;;;;;;;22.36;49.67;100551.31;18564080;32;20100;-67
2022/05/13 03:32:44;;;;;;;2.67;1.50;;;;;;;22.82;48.85;100582.78;18562795;32;20148;-67
2022/05/13 03:42:49;;;;;;;4.87;1.83;;;;;;;22.56;49.99;100582.28;18562703;32;20111;-67
2022/05/13 03:52:52;;;;;;;3.53;1.60;;;;;;;22.53;50.79;100580.63;18562510;32;20115;-67
2022/05/13 04:02:57;;;;;;;3.50;1.50;;;;;;;21.87;52.97;100598.81;18561735;32;20114;-67
2022/05/13 04:23:23;;;;;;;2.90;1.40;;;;;;;22.36;49.59;100610.69;18561403;32;20447;-68
2022/05/13 04:33:26;;;;;;;3.28;1.60;;;;;;;22.82;48.87;100622.69;18558722;32;20088;-68
2022/05/13 04:43:34;;;;;;;4.45;1.70;;;;;;;22.37;51.49;100614.19;18560466;32;20092;-67
2022/05/13 04:53:39;;;;;;;2.58;1.48;;;;;;;22.01;53.19;100608.78;18560272;32;20448;-67
2022/05/13 05:03:44;;;;;;;4.85;1.85;;;;;;;21.85;54.61;100632.53;18559999;32;20176;-67
2022/05/13 05:13:49;;;;;;;2.78;1.48;;;;;;;22.08;54.30;100646.56;18558871;32;20084;-67
2022/05/13 05:23:55;;;;;;;3.10;1.48;;;;;;;22.24;54.23;100659.12;18558574;32;20192;-67
2022/05/13 05:33:58;;;;;;;3.25;1.48;;;;;;;22.26;54.25;100668.75;18566483;32;20084;-68
2022/05/13 05:44:03;;;;;;;1.98;1.08;;;;;;;22.55;50.24;100679.84;18565889;32;20779;-68
2022/05/13 06:04:28;;;;;;;3.67;1.70;;;;;;;23.31;51.48;100688.56;18566554;32;20147;-68
2022/05/13 06:14:31;;;;;;;2.25;1.35;;;;;;;23.02;53.49;100704.19;18565228;32;20344;-67
2022/05/13 06:24:36;;;;;;;2.62;1.10;;;;;;;23.15;50.40;100707.09;18550449;32;20115;-67
2022/05/13 06:34:39;;;;;;;4.70;1.20;;;;;;;23.19;50.16;100702.50;18565654;32;20357;-68
2022/05/13 06:44:44;;;;;;;3.58;1.10;;;;;;;23.64;47.42;100693.09;18563716;32;20096;-67
2022/05/13 06:54:47;;;;;;;2.87;1.55;;;;;;;23.90;47.46;100709.53;18563862;32;20188;-68
2022/05/13 07:04:52;;;;;;;2.92;1.45;;;;;;;23.50;52.08;100709.81;18563738;32;20092;-68
2022/05/13 07:14:55;;;;;;;2.00;1.35;;;;;;;23.46;52.26;100708.22;18563653;32;20104;-68
2022/05/13 07:24:59;;;;;;;2.78;1.35;;;;;;;24.61;47.87;100691.44;18563251;32;20089;-68
2022/05/13 07:35:03;;;;;;;3.60;1.20;;;;;;;26.33;43.63;100687.53;18562930;32;20096;-68
2022/05/13 07:45:09;;;;;;;2.28;1.33;;;;;;;27.37;41.58;100694.09;18552491;32;111654;-68
2022/05/13 07:55:15;;;;;;;2.75;1.10;;;;;;;26.72;42.30;100691.22;18562295;32;20110;-68
2022/05/13 08:05:20;;;;;;;4.53;1.12;;;;;;;26.62;40.38;100690.12;18562117;32;20111;-68
2022/05/13 08:15:23;;;;;;;1.85;1.00;;;;;;;26.43;42.09;100696.66;18561565;32;20116;-68
2022/05/13 08:25:28;;;;;;;1.17;0.80;;;;;;;25.89;43.21;100718.75;18561339;32;20457;-68
2022/05/13 08:35:31;;;;;;;2.08;1.27;;;;;;;25.47;40.42;100723.94;18560795;32;20114;-68
2022/05/13 08:45:40;;;;;;;2.17;1.30;;;;;;;25.44;42.75;100727.66;18560625;32;20105;-68
2022/05/13 08:55:46;;;;;;;2.12;1.25;;;;;;;25.85;40.08;100709.22;18560215;32;20093;-68
2022/05/13 09:05:53;;;;;;;1.65;0.90;;;;;;;26.47;41.06;100704.53;18544207;32;20437;-68
2022/05/13 09:15:57;;;;;;;1.52;0.98;;;;;;;26.18;40.42;100695.56;18558967;32;20136;-68
2022/05/13 09:26:06;;;;;;;2.62;1.20;;;;;;;25.60;43.32;100716.06;18558471;32;20088;-68
2022/05/13 09:36:29;;;;;;;3.42;1.30;;;;;;;25.87;43.62;100702.81;18543447;32;20096;-68
2022/05/13 09:46:35;;;;;;;2.80;1.20;;;;;;;25.51;43.79;100706.78;18543938;32;20457;-68
2022/05/13 09:56:42;;;;;;;2.75;1.40;;;;;;;25.62;44.44;100731.06;18556562;32;20100;-68
2022/05/13 10:06:47;;;;;;;4.47;1.70;;;;;;;25.28;46.51;100742.84;18541559;32;20118;-68
2022/05/13 10:16:51;;;;;;;2.58;1.30;;;;;;;24.76;48.85;100735.09;18561969;32;20096;-68
2022/05/13 10:26:57;;;;;;;2.00;1.25;;;;;;;24.76;48.53;100721.75;18565052;32;20108;-68
2022/05/13 10:37:05;;;;;;;2.83;1.30;;;;;;;25.78;48.78;100716.75;18564646;32;20084;-68
2022/05/13 10:47:14;;;;;;;2.90;1.35;;;;;;;26.59;45.78;100714.41;18565339;32;20088;-68
2022/05/13 10:57:31;;;;;;;2.10;1.43;;;;;;;26.68;45.42;100711.13;18563856;32;20649;-68
2022/05/13 11:07:41;;;;;;;2.35;1.40;;;;;;;26.30;45.08;100711.81;18563970;32;20128;-69
2022/05/13 11:17:52;;;;;;;2.78;1.40;;;;;;;26.66;42.54;100707.72;18563811;32;20639;-68
2022/05/13 11:28:03;;;;;;;3.37;1.50;;;;;;;26.36;42.81;100695.34;18549602;32;20361;-67
2022/05/13 11:38:13;;;;;;;2.28;1.20;;;;;;;25.97;44.32;100687.06;18562958;32;20092;-68
2022/05/13 11:48:21;;;;;;;1.50;1.02;;;;;;;25.51;45.29;100687.22;18562811;32;20088;-68
2022/05/13 11:58:49;;;;;;;2.70;1.20;;;;;;;25.21;43.21;100692.47;18561739;32;20092;-68
2022/05/13 12:08:57;;;;;;;3.22;1.45;;;;;;;24.43;44.81;100688.00;18561971;32;20096;-69
2022/05/13 12:19:25;;;;;;;2.92;1.50;;;;;;;24.30;44.16;100703.00;18561839;32;20111;-68
2022/05/13 12:29:48;;;;;;;3.78;1.17;;;;;;;24.02;45.50;100694.66;18561439;32;20124;-67
2022/05/13 12:39:57;;;;;;;3.80;1.20;;;;;;;24.02;45.64;100683.12;18546358;32;20076;-67
2022/05/13 13:00:36;;;;;;;1.98;1.00;;;;;;;23.78;45.64;100670.19;18604830;32;168891;-65
2022/05/13 13:10:48;;;;;;;2.05;1.20;;;;;;;23.35;46.47;100668.84;18545884;32;20145;-65
2022/05/13 13:20:58;;;;;;;3.58;1.37;;;;;;;23.13;47.21;100664.56;18543346;32;20118;-65
2022/05/13 13:31:04;;;;;;;4.32;1.85;;;;;;;22.84;48.90;100658.06;18543030;32;20093;-65
2022/05/13 13:41:09;;;;;;;3.67;1.50;;;;;;;23.00;49.33;100623.56;18544210;32;20171;-65
2022/05/13 13:51:17;;;;;;;1.92;0.98;;;;;;;22.85;49.56;100614.56;18543631;32;20100;-65
2022/05/13 14:01:24;;;;;;;1.20;0.90;;;;;;;23.19;47.94;100590.66;18543619;32;20092;-65
2022/05/13 14:11:28;;;;;;;4.03;1.17;;;;;;;21.71;57.94;100587.16;18502115;32;20089;-65
2022/05/13 14:21:59;;;;;;;3.47;1.48;;;;;;;21.49;62.21;100581.00;18500183;32;20108;-65
2022/05/13 14:32:08;;;;;;;3.58;1.30;;;;;;;22.91;55.75;100557.47;18499710;32;20100;-66
2022/05/13 14:42:17;;;;;;;1.15;0.90;;;;;;;23.95;50.31;100517.31;18499151;32;20085;-66
2022/05/13 14:52:23;;;;;;;2.08;1.10;;;;;;;23.63;49.48;100502.19;18498309;32;20114;-65
2022/05/13 15:02:31;;;;;;;2.35;1.12;;;;;;;24.38;47.86;100514.03;18498375;32;20107;-66
2022/05/13 15:12:34;;;;;;;3.70;1.40;;;;;;;24.65;47.99;100518.66;18497875;32;20476;-65
2022/05/13 15:22:39;;;;;;;1.27;0.90;;;;;;;24.54;46.97;100513.97;18496673;32;20175;-65
2022/05/13 15:32:42;;;;;;;2.78;1.10;;;;;;;24.25;46.69;100525.37;18497470;32;20096;-65
2022/05/13 15:42:48;;;;;;;1.58;0.98;;;;;;;24.48;45.45;100512.53;18498254;32;20112;-65
2022/05/13 15:52:52;;;;;;;2.95;0.80;;;;;;;24.07;46.01;100516.66;18496844;32;20148;-65
2022/05/13 16:02:58;;;;;;;1.70;1.00;;;;;;;24.64;44.56;100485.78;18494835;32;20111;-65
2022/05/13 16:13:04;;;;;;;2.12;1.10;;;;;;;24.41;47.20;100479.16;18494518;32;20085;-65
2022/05/13 16:23:08;;;;;;;3.22;1.10;;;;;;;24.71;45.77;100464.91;18494362;32;20092;-65
2022/05/13 16:33:12;;;;;;;1.70;0.95;;;;;;;24.79;45.00;100453.78;18495150;32;20100;-65
2022/05/13 16:43:16;;;;;;;2.35;1.00;;;;;;;24.74;45.32;100451.38;18491128;32;20118;-65
2022/05/13 16:53:19;;;;;;;2.55;1.10;;;;;;;24.41;46.14;100446.25;18491526;32;20100;-65
2022/05/13 17:03:25;;;;;;;2.33;1.20;;;;;;;24.35;46.18;100442.16;18493890;32;20077;-65
2022/05/13 17:23:46;;;;;;;2.40;1.20;;;;;;;24.16;48.11;100437.91;18342248;32;20382;-65
2022/05/13 17:33:50;;;;;;;2.15;1.00;;;;;;;24.06;48.43;100440.28;18353659;32;20169;-66
2022/05/13 17:43:57;;;;;;;4.57;1.50;;;;;;;23.82;50.80;100439.88;18359124;32;20153;-65
2022/05/13 17:54:00;;;;;;;3.28;1.62;;;;;;;23.16;53.05;100455.88;18372690;32;20097;-65
2022/05/13 18:04:05;;;;;;;3.97;1.75;;;;;;;22.82;54.36;100473.69;18499953;32;20115;-65
2022/05/13 18:14:08;;;;;;;2.90;1.40;;;;;;;22.48;55.69;100475.38;18499277;32;20110;-65
2022/05/13 18:24:12;;;;;;;3.58;1.60;;;;;;;21.87;57.17;100467.72;18500751;32;20420;-65
2022/05/13 18:34:18;;;;;;;4.40;1.77;;;;;;;21.34;59.10;100481.66;18496642;32;20112;-66
2022/05/13 18:54:45;;;;;;;3.75;1.92;;;;;;;21.02;60.79;100491.06;18494859;32;20088;-66
2022/05/13 19:04:49;;;;;;;4.87;2.30;;;;;;;20.80;61.01;100489.34;18495012;32;20446;-66
2022/05/13 19:14:55;;;;;;;3.45;1.95;;;;;;;20.43;62.91;100499.72;18497414;32;20093;-65
2022/05/13 19:25:00;;;;;;;4.75;2.17;;;;;;;20.37;62.37;100519.41;18495639;32;20126;-66
2022/05/13 19:35:05;;;;;;;4.40;1.98;;;;;;;20.09;63.96;100525.81;18495368;32;20092;-66
2022/05/13 19:45:11;;;;;;;4.07;2.10;;;;;;;20.34;62.42;100537.22;18495520;32;20121;-66
2022/05/13 19:55:22;;;;;;;6.53;2.42;;;;;;;20.02;63.49;100540.25;18494952;32;20100;-66
2022/05/13 20:15:50;;;;;;;4.97;2.50;;;;;;;19.40;65.10;100537.28;18450298;32;20120;-66
2022/05/13 20:25:55;;;;;;;5.32;2.47;;;;;;;19.85;63.92;100542.69;18493082;32;20092;-65
2022/05/13 20:36:00;;;;;;;4.55;2.03;;;;;;;20.28;62.57;100540.12;18488518;32;20433;-65
2022/05/13 20:46:05;;;;;;;4.68;1.92;;;;;;;20.50;62.17;100535.66;18491846;32;20389;-65
2022/05/13 20:56:08;;;;;;;4.20;2.03;;;;;;;21.11;60.36;100538.44;18493361;32;20115;-65
2022/05/13 21:06:13;;;;;;;3.85;1.80;;;;;;;21.33;59.11;100535.69;18494126;32;20105;-65
2022/05/13 21:16:16;;;;;;;4.05;1.92;;;;;;;21.68;56.81;100523.56;18496564;32;20092;-66
2022/05/13 21:26:21;;;;;;;4.43;1.90;;;;;;;21.18;56.25;100526.62;18501554;32;20081;-65
2022/05/13 21:36:43;;;;;;;3.92;1.80;;;;;;;21.65;54.43;100519.22;18501132;32;20116;-66
2022/05/13 21:46:49;;;;;;;4.10;1.95;;;;;;;21.41;55.33;100506.13;18500776;32;20458;-66
2022/05/13 21:56:53;;;;;;;4.35;1.60;;;;;;;21.48;54.23;100499.59;18500338;32;20119;-68
2022/05/13 22:06:57;;;;;;;4.05;1.67;;;;;;;21.38;54.17;100516.88;18500246;32;20145;-68
2022/05/13 22:17:00;;;;;;;3.22;1.73;;;;;;;21.32;54.87;100487.97;18499940;32;20097;-68
2022/05/13 22:27:05;;;;;;;4.68;1.83;;;;;;;21.26;54.45;100497.06;18497884;32;20133;-68
2022/05/13 22:37:09;;;;;;;5.12;1.90;;;;;;;21.05;55.29;100518.34;18499293;32;20097;-68
2022/05/13 22:47:14;;;;;;;3.92;2.17;;;;;;;20.95;55.35;100498.44;18498886;32;20119;-68
2022/05/13 22:57:17;;;;;;;4.97;2.20;;;;;;;20.99;54.93;100509.78;18498457;32;20136;-67
2022/05/13 23:17:42;;;;;;;5.45;2.10;;;;;;;20.77;54.76;100494.75;18499217;32;20161;-67
2022/05/13 23:27:47;;;;;;;3.45;1.80;;;;;;;20.85;54.12;100497.97;18497932;32;20100;-68
2022/05/13 23:37:50;;;;;;;4.72;2.00;;;;;;;21.01;52.98;100498.19;18496709;32;20107;-67
2022/05/13 23:47:55;;;;;;;4.40;2.05;;;;;;;20.81;53.25;100504.31;18497380;32;20092;-68
2022/05/13 23:57:58;;;;;;;3.58;1.90;;;;;;;21.24;51.74;100504.25;18497170;32;20105;-65
